CSAV Trancura — D5EV9 — position and weather

sailwx.info

Track history (hours):
 
Tides and Currents Weather Stations Pressure Air Temp Water Temp Dewpoint Dewpoint Depression Visibility Wind Speed Wind Dir Waves Ship Positions

CSAV Trancura

Last reported at 2017-Sep-18 21:55 UTC. Time now 2017-Sep-20 02:08 UTC.
Position N 33°21' E 127°11'.

Length 300 m; draft 11 m.

Type: Cargo ship. MMSI: 636016177.

Date/timePositionNaut miles runAvg speedWind from/ knotsBaromVisibWave heightAir tempDewpointWater temp
2017-Sep-18 21:55N 33°21' E 127°11'410.5
2017-Sep-18 21:30N 33°17' E 127°08'234 9.4
2017-Sep-17 20:36N 30°43' E 123°41'31 8.9
2017-Sep-17 17:09N 30°35' E 123°07'3 9.9
2017-Sep-17 16:54N 30°35' E 123°04'612.2
2017-Sep-17 16:24N 30°36' E 122°57'718.5
2017-Sep-17 16:00N 30°35' E 122°48'611.6
2017-Sep-17 15:30N 30°34' E 122°41'4 0.1
2017-Sep-16 05:48N 30°35' E 122°37'310.2
2017-Sep-16 05:30N 30°35' E 122°40'917.6
2017-Sep-16 05:00N 30°36' E 122°51'84 2.3
2017-Sep-14 15:41N 31°59' E 122°41'1 1.7
2017-Sep-14 14:53N 32°00' E 122°43'13 1.9
2017-Sep-14 07:55N 32°01' E 122°59'1 2.8
2017-Sep-14 07:25N 32°01' E 123°00'91 7.3
2017-Sep-13 18:53N 30°30' E 123°03'16 8.3
2017-Sep-13 16:55N 30°14' E 123°02'12 7.3
2017-Sep-13 15:19N 30°02' E 122°59'2 6.8
2017-Sep-13 15:00N 30°00' E 122°58'2 1.8
2017-Sep-13 13:44N 30°02' E 122°58'4 3.0
2017-Sep-13 12:33N 30°05' E 123°00'3 2.5
2017-Sep-13 11:32N 30°08' E 123°01'0 2.7
2017-Sep-13 11:24N 30°08' E 123°01'1 2.6
2017-Sep-13 10:57N 30°09' E 123°01'20 3.9
2017-Sep-13 05:48N 29°52' E 122°49'2 7.2
2017-Sep-13 05:30N 29°50' E 122°48'6 6.9
2017-Sep-13 04:39N 29°46' E 122°44'2 6.9
2017-Sep-13 04:19N 29°44' E 122°42'2 6.6
2017-Sep-13 03:59N 29°43' E 122°40'5 9.7
2017-Sep-13 03:30N 29°40' E 122°35'612.2
2017-Sep-13 03:00N 29°41' E 122°29'713.9
2017-Sep-13 02:30N 29°43' E 122°21'612.4
2017-Sep-13 02:01N 29°47' E 122°16'5 9.8
2017-Sep-13 01:30N 29°51' E 122°11'510.9
2017-Sep-13 01:00N 29°48' E 122°06'5 9.5
2017-Sep-13 00:30N 29°46' E 122°01'0 0.4
2017-Sep-12 23:51N 29°46' E 122°00'0 0.0
2017-Sep-12 23:18N 29°46' E 122°00'0 0.0
2017-Sep-12 22:51N 29°46' E 122°00'0 0.1
2017-Sep-12 22:01N 29°46' E 122°00'0 0.0
2017-Sep-12 21:42N 29°46' E 122°00'0 0.0
2017-Sep-12 21:24N 29°46' E 122°00'0 0.0
2017-Sep-12 20:57N 29°46' E 122°00'0 0.1
2017-Sep-12 20:21N 29°46' E 122°00'0 0.0
2017-Sep-12 20:00N 29°46' E 122°00'0 0.0
2017-Sep-12 19:27N 29°46' E 122°00'0 0.0
2017-Sep-12 18:51N 29°46' E 122°00'0 0.1
2017-Sep-12 18:27N 29°46' E 122°00'0 0.0
2017-Sep-12 17:13N 29°46' E 122°00'0 0.0
2017-Sep-12 17:00N 29°46' E 122°00'0 0.0
2017-Sep-12 16:30N 29°46' E 122°00'0 0.0
2017-Sep-12 14:55N 29°46' E 122°00'0 0.0
2017-Sep-12 14:31N 29°46' E 122°00'0 0.1
2017-Sep-12 14:00N 29°46' E 122°00'0 0.0
2017-Sep-12 13:25N 29°46' E 122°00'0 0.0
2017-Sep-12 13:01N 29°46' E 122°00'0 0.1
2017-Sep-12 12:12N 29°46' E 122°00'0 0.0
2017-Sep-12 12:00N 29°46' E 122°00'0 0.0
2017-Sep-12 11:28N 29°46' E 122°00'0 0.0
2017-Sep-12 11:00N 29°46' E 122°00'0 0.0
2017-Sep-12 10:21N 29°46' E 122°00'0 0.1
2017-Sep-12 09:58N 29°46' E 122°00'0 0.0
2017-Sep-12 09:27N 29°46' E 122°00'0 0.1
2017-Sep-12 08:57N 29°46' E 122°00'0 0.0
2017-Sep-12 07:49N 29°46' E 122°00'0 0.1
2017-Sep-12 07:27N 29°46' E 122°00'0 0.1
2017-Sep-12 07:01N 29°46' E 122°00'0 0.0
2017-Sep-12 06:19N 29°46' E 122°00'0 0.0
2017-Sep-12 05:31N 29°46' E 122°00'0 0.0
2017-Sep-12 05:00N 29°46' E 122°00'0 0.0
2017-Sep-12 04:27N 29°46' E 122°00'0 0.0
2017-Sep-12 04:00N 29°46' E 122°00'0 0.1
2017-Sep-12 03:28N 29°46' E 122°00'1 1.5
2017-Sep-12 02:59N 29°46' E 122°01'5 9.9
2017-Sep-12 02:27N 29°49' E 122°07'511.9
2017-Sep-12 02:00N 29°50' E 122°13'611.4
2017-Sep-12 01:30N 29°46' E 122°17'3 5.8
2017-Sep-12 00:56N 29°45' E 122°21'3 6.9
2017-Sep-12 00:30N 29°44' E 122°24'3 6.5
2017-Sep-12 00:00N 29°43' E 122°27'4 7.3
2017-Sep-11 23:30N 29°42' E 122°31'4 7.0
2017-Sep-11 23:00N 29°41' E 122°35'5 9.9
2017-Sep-11 22:30N 29°43' E 122°40'510.7
2017-Sep-11 22:00N 29°47' E 122°44'611.3
2017-Sep-11 21:29N 29°52' E 122°48'510.7
2017-Sep-11 21:00N 29°56' E 122°52'6 4.2
2017-Sep-11 19:38N 30°01' E 122°54'1 0.3
2017-Sep-11 17:46N 30°01' E 122°53'0 0.7
2017-Sep-11 17:29N 30°01' E 122°54'  
2017-Sep-09 12:04N 36°00' E 120°13'0 0.1
2017-Sep-09 11:43N 36°00' E 120°13'0 0.0
2017-Sep-09 11:19N 36°00' E 120°13'0 0.1
2017-Sep-09 10:58N 36°00' E 120°13'0 0.0
2017-Sep-09 10:29N 36°00' E 120°13'0 0.1
2017-Sep-09 09:47N 36°00' E 120°13'0 0.0
2017-Sep-09 06:58N 36°00' E 120°13'0 0.0
2017-Sep-09 04:21N 36°00' E 120°13'0 0.1
2017-Sep-09 04:00N 36°00' E 120°13'0 0.1
2017-Sep-09 03:28N 36°00' E 120°13'0 0.1
2017-Sep-09 02:58N 36°00' E 120°13'0 0.0
2017-Sep-09 01:17N 36°00' E 120°13'0 0.0
2017-Sep-09 00:59N 36°00' E 120°13'0 0.0
2017-Sep-09 00:24N 36°00' E 120°13'0 0.0
2017-Sep-08 23:52N 36°00' E 120°13'0 0.0
2017-Sep-08 23:20N 36°00' E 120°13'0 0.0
2017-Sep-08 22:53N 36°00' E 120°13'0 0.0
2017-Sep-08 22:29N 36°00' E 120°13'  
Track history (hours):
 
Tides and Currents Weather Stations Pressure Air Temp Water Temp Dewpoint Dewpoint Depression Visibility Wind Speed Wind Dir Waves Ship Positions

CSAV Trancura

Last reported at 2017-Sep-18 21:55 UTC. Time now 2017-Sep-20 02:08 UTC.
Position N 33°21' E 127°11'.

Length 300 m; draft 11 m.

Type: Cargo ship. MMSI: 636016177.

Date/timePositionNaut miles runAvg speedWind from/ knotsBaromVisibWave heightAir tempDewpointWater temp
2017-Sep-18 21:55N 33°21' E 127°11'410.5
2017-Sep-18 21:30N 33°17' E 127°08'234 9.4
2017-Sep-17 20:36N 30°43' E 123°41'31 8.9
2017-Sep-17 17:09N 30°35' E 123°07'3 9.9
2017-Sep-17 16:54N 30°35' E 123°04'612.2
2017-Sep-17 16:24N 30°36' E 122°57'718.5
2017-Sep-17 16:00N 30°35' E 122°48'611.6
2017-Sep-17 15:30N 30°34' E 122°41'4 0.1
2017-Sep-16 05:48N 30°35' E 122°37'310.2
2017-Sep-16 05:30N 30°35' E 122°40'917.6
2017-Sep-16 05:00N 30°36' E 122°51'84 2.3
2017-Sep-14 15:41N 31°59' E 122°41'1 1.7
2017-Sep-14 14:53N 32°00' E 122°43'13 1.9
2017-Sep-14 07:55N 32°01' E 122°59'1 2.8
2017-Sep-14 07:25N 32°01' E 123°00'91 7.3
2017-Sep-13 18:53N 30°30' E 123°03'16 8.3
2017-Sep-13 16:55N 30°14' E 123°02'12 7.3
2017-Sep-13 15:19N 30°02' E 122°59'2 6.8
2017-Sep-13 15:00N 30°00' E 122°58'2 1.8
2017-Sep-13 13:44N 30°02' E 122°58'4 3.0
2017-Sep-13 12:33N 30°05' E 123°00'3 2.5
2017-Sep-13 11:32N 30°08' E 123°01'0 2.7
2017-Sep-13 11:24N 30°08' E 123°01'1 2.6
2017-Sep-13 10:57N 30°09' E 123°01'20 3.9
2017-Sep-13 05:48N 29°52' E 122°49'2 7.2
2017-Sep-13 05:30N 29°50' E 122°48'6 6.9
2017-Sep-13 04:39N 29°46' E 122°44'2 6.9
2017-Sep-13 04:19N 29°44' E 122°42'2 6.6
2017-Sep-13 03:59N 29°43' E 122°40'5 9.7
2017-Sep-13 03:30N 29°40' E 122°35'612.2
2017-Sep-13 03:00N 29°41' E 122°29'713.9
2017-Sep-13 02:30N 29°43' E 122°21'612.4
2017-Sep-13 02:01N 29°47' E 122°16'5 9.8
2017-Sep-13 01:30N 29°51' E 122°11'510.9
2017-Sep-13 01:00N 29°48' E 122°06'5 9.5
2017-Sep-13 00:30N 29°46' E 122°01'0 0.4
2017-Sep-12 23:51N 29°46' E 122°00'0 0.0
2017-Sep-12 23:18N 29°46' E 122°00'0 0.0
2017-Sep-12 22:51N 29°46' E 122°00'0 0.1
2017-Sep-12 22:01N 29°46' E 122°00'0 0.0
2017-Sep-12 21:42N 29°46' E 122°00'0 0.0
2017-Sep-12 21:24N 29°46' E 122°00'0 0.0
2017-Sep-12 20:57N 29°46' E 122°00'0 0.1
2017-Sep-12 20:21N 29°46' E 122°00'0 0.0
2017-Sep-12 20:00N 29°46' E 122°00'0 0.0
2017-Sep-12 19:27N 29°46' E 122°00'0 0.0
2017-Sep-12 18:51N 29°46' E 122°00'0 0.1
2017-Sep-12 18:27N 29°46' E 122°00'0 0.0
2017-Sep-12 17:13N 29°46' E 122°00'0 0.0
2017-Sep-12 17:00N 29°46' E 122°00'0 0.0
2017-Sep-12 16:30N 29°46' E 122°00'0 0.0
2017-Sep-12 14:55N 29°46' E 122°00'0 0.0
2017-Sep-12 14:31N 29°46' E 122°00'0 0.1
2017-Sep-12 14:00N 29°46' E 122°00'0 0.0
2017-Sep-12 13:25N 29°46' E 122°00'0 0.0
2017-Sep-12 13:01N 29°46' E 122°00'0 0.1
2017-Sep-12 12:12N 29°46' E 122°00'0 0.0
2017-Sep-12 12:00N 29°46' E 122°00'0 0.0
2017-Sep-12 11:28N 29°46' E 122°00'0 0.0
2017-Sep-12 11:00N 29°46' E 122°00'0 0.0
2017-Sep-12 10:21N 29°46' E 122°00'0 0.1
2017-Sep-12 09:58N 29°46' E 122°00'0 0.0
2017-Sep-12 09:27N 29°46' E 122°00'0 0.1
2017-Sep-12 08:57N 29°46' E 122°00'0 0.0
2017-Sep-12 07:49N 29°46' E 122°00'0 0.1
2017-Sep-12 07:27N 29°46' E 122°00'0 0.1
2017-Sep-12 07:01N 29°46' E 122°00'0 0.0
2017-Sep-12 06:19N 29°46' E 122°00'0 0.0
2017-Sep-12 05:31N 29°46' E 122°00'0 0.0
2017-Sep-12 05:00N 29°46' E 122°00'0 0.0
2017-Sep-12 04:27N 29°46' E 122°00'0 0.0
2017-Sep-12 04:00N 29°46' E 122°00'0 0.1
2017-Sep-12 03:28N 29°46' E 122°00'1 1.5
2017-Sep-12 02:59N 29°46' E 122°01'5 9.9
2017-Sep-12 02:27N 29°49' E 122°07'511.9
2017-Sep-12 02:00N 29°50' E 122°13'611.4
2017-Sep-12 01:30N 29°46' E 122°17'3 5.8
2017-Sep-12 00:56N 29°45' E 122°21'3 6.9
2017-Sep-12 00:30N 29°44' E 122°24'3 6.5
2017-Sep-12 00:00N 29°43' E 122°27'4 7.3
2017-Sep-11 23:30N 29°42' E 122°31'4 7.0
2017-Sep-11 23:00N 29°41' E 122°35'5 9.9
2017-Sep-11 22:30N 29°43' E 122°40'510.7
2017-Sep-11 22:00N 29°47' E 122°44'611.3
2017-Sep-11 21:29N 29°52' E 122°48'510.7
2017-Sep-11 21:00N 29°56' E 122°52'6 4.2
2017-Sep-11 19:38N 30°01' E 122°54'1 0.3
2017-Sep-11 17:46N 30°01' E 122°53'0 0.7
2017-Sep-11 17:29N 30°01' E 122°54'  
2017-Sep-09 12:04N 36°00' E 120°13'0 0.1
2017-Sep-09 11:43N 36°00' E 120°13'0 0.0
2017-Sep-09 11:19N 36°00' E 120°13'0 0.1
2017-Sep-09 10:58N 36°00' E 120°13'0 0.0
2017-Sep-09 10:29N 36°00' E 120°13'0 0.1
2017-Sep-09 09:47N 36°00' E 120°13'0 0.0
2017-Sep-09 06:58N 36°00' E 120°13'0 0.0
2017-Sep-09 04:21N 36°00' E 120°13'0 0.1
2017-Sep-09 04:00N 36°00' E 120°13'0 0.1
2017-Sep-09 03:28N 36°00' E 120°13'0 0.1
2017-Sep-09 02:58N 36°00' E 120°13'0 0.0
2017-Sep-09 01:17N 36°00' E 120°13'0 0.0
2017-Sep-09 00:59N 36°00' E 120°13'0 0.0
2017-Sep-09 00:24N 36°00' E 120°13'0 0.0
2017-Sep-08 23:52N 36°00' E 120°13'0 0.0
2017-Sep-08 23:20N 36°00' E 120°13'0 0.0
2017-Sep-08 22:53N 36°00' E 120°13'0 0.0
2017-Sep-08 22:29N 36°00' E 120°13'  

Dump ship's entire track history